Latest Weather Observations for Territory Grape Farm

IDD60801

Issued at 2:05 pm CST Sunday 23 November 2014 (issued every 30 minutes, with the page automatically refreshed every 10 minutes)

About weather observations | Map of weather stations | Latest weather observations for NT | Other Formats
Station Details ID: 015643 Name: TERRITORY GRAPE FARM Lat: -22.45 Lon: 133.64 Height: 565.6 m
Data from the previous 72 hours. | See also: Recent months at Territory Grape Farm
Date/Time
CST
Temp
°C
App
Temp
°C
Dew
Point
Rel
Hum
%
Delta-T
°C
Wind Press
QNH
hPa
Press
MSL
hPa
Rain
since 9 am
mm
Dir
 
Spd
km/h
Gust
km/h
Spd
kts
Gust
kts
23/02:00pm 39.5 36.4 11.6 19 17.2 WNW 19 46 10 25 1010.7 1006.7 0.0
23/01:30pm 38.4 37.4 12.2 21 16.2 NNW 9 20 5 11 1011.2 1007.3 0.0
23/01:00pm 37.7 36.0 12.3 22 15.7 WNW 13 26 7 14 1011.7 1007.8 0.0
23/12:30pm 38.6 36.2 13.8 23 15.7 NW 19 32 10 17 1012.0 1008.1 0.0
23/12:00pm 36.8 35.1 13.5 24 14.6 W 15 28 8 15 1012.8 1008.9 0.0
23/11:30am 36.3 35.6 14.3 27 13.9 NW 11 24 6 13 1013.3 1009.4 0.0
23/11:00am 36.0 35.2 15.2 29 13.3 WNW 13 26 7 14 1013.6 1009.7 0.0
23/10:30am 35.1 33.8 14.9 29 12.8 NW 15 24 8 13 1014.0 1010.2 0.0
23/10:00am 33.7 32.6 14.2 30 12.2 NNW 13 22 7 12 1014.1 1010.3 0.0
23/09:30am 32.8 32.5 14.4 33 11.5 NW 9 19 5 10 1014.2 1010.4 0.0
23/09:00am 31.1 30.6 13.8 34 10.7 NNE 9 15 5 8 1014.0 1010.2 0.0
23/08:30am 29.9 29.6 14.4 38 9.6 N 9 15 5 8 1014.0 1010.2 0.0
23/08:00am 28.3 27.9 15.2 44 8.2 NNE 11 15 6 8 1013.8 1009.9 0.0
23/07:30am 26.3 25.6 15.4 51 6.8 NNE 13 17 7 9 1013.3 1009.4 0.0
23/07:00am 25.5 24.7 15.2 53 6.4 NE 13 17 7 9 1013.1 1009.2 0.0
23/06:30am 24.3 26.2 15.8 59 5.3 CALM 0 0 0 0 1013.2 1009.3 0.0
23/06:00am 23.7 23.5 15.7 61 4.9 N 11 15 6 8 1012.6 1008.7 0.0
23/05:30am 23.6 24.1 15.6 61 4.9 N 7 11 4 6 1012.1 1008.2 0.0
23/05:00am 23.6 24.1 15.6 61 4.9 NNE 7 9 4 5 1012.1 1008.2 0.0
23/04:30am 23.4 24.5 15.7 62 4.8 NNE 4 6 2 3 1012.2 1008.3 0.0
23/04:00am 23.6 24.9 16.1 62 4.7 ENE 4 6 2 3 1012.2 1008.3 0.0
23/03:30am 23.5 24.3 15.8 62 4.8 SE 6 7 3 4 1012.3 1008.4 0.0
23/03:00am 24.0 23.9 16.0 61 5.0 S 11 17 6 9 1012.8 1008.9 0.0
23/02:30am 24.3 21.4 16.0 60 5.2 SSW 26 41 14 22 1013.2 1009.3 0.0
23/02:10am 24.3 20.6 16.0 60 5.2 SSW 30 48 16 26 1013.8 1009.9 0.0
23/02:00am 24.3 20.3 16.3 61 5.0 SSW 32 46 17 25 1013.8 1009.9 0.0
23/01:30am 24.6 19.8 16.6 61 5.0 SW 37 54 20 29 1014.6 1010.7 0.0
23/01:05am 25.1 20.2 16.3 58 5.5 SW 37 56 20 30 1014.5 1010.6 0.0
23/01:00am 25.2 19.9 16.4 58 5.5 SW 39 56 21 30 1014.6 1010.7 0.0
23/12:39am 25.3 19.4 16.7 59 5.4 SW 43 63 23 34 1014.6 1010.7 0.0
23/12:30am 25.9 18.9 16.2 55 6.1 SW 48 65 26 35 1014.6 1010.7 0.0
23/12:11am 28.9 23.2 15.1 43 8.6 SW 39 61 21 33 1014.2 1010.4 0.0
23/12:00am 28.4 28.3 13.9 41 8.9 W 7 9 4 5 1013.5 1009.6 0.0
 
Date/Time
CST
Temp
°C
App
Temp
°C
Dew
Point
Rel
Hum
%
Delta-T
°C
Wind Press
QNH
hPa
Press
MSL
hPa
Rain
since 9 am
mm
Dir
 
Spd
km/h
Gust
km/h
Spd
kts
Gust
kts
22/11:30pm 27.4 27.6 14.1 44 8.1 SSW 6 6 3 3 1013.8 1009.9 0.0
22/11:00pm 27.9 27.8 13.8 42 8.6 SW 7 7 4 4 1013.6 1009.7 0.0
22/10:30pm 28.0 27.5 13.9 42 8.6 WSW 9 11 5 6 1013.4 1009.5 0.0
22/10:00pm 28.7 28.8 13.8 40 9.1 NW 6 6 3 3 1013.2 1009.3 0.0
22/09:30pm 29.5 29.3 13.7 38 9.7 NNW 7 7 4 4 1012.9 1009.0 0.0
22/09:00pm 30.4 29.9 13.7 36 10.3 N 9 9 5 5 1012.7 1008.8 0.0
22/08:30pm 31.3 30.4 13.6 34 10.9 N 11 15 6 8 1012.6 1008.7 0.0
22/08:00pm 32.1 30.5 13.8 33 11.3 NNW 15 20 8 11 1012.1 1008.2 0.0
22/07:30pm 33.0 30.3 13.6 31 12.0 N 20 32 11 17 1011.8 1007.9 0.0
22/07:00pm 33.6 31.1 13.6 29 12.4 N 19 24 10 13 1011.4 1007.5 0.0
22/06:30pm 34.6 31.9 12.9 27 13.4 NNW 19 26 10 14 1010.8 1006.8 0.0
22/06:00pm 35.8 33.4 12.7 25 14.3 N 17 22 9 12 1010.7 1006.7 0.0
22/05:30pm 36.3 33.9 12.5 24 14.7 N 17 28 9 15 1010.5 1006.6 0.0
22/05:00pm 36.2 34.1 13.6 25 14.2 N 17 24 9 13 1010.8 1006.8 0.0
22/04:30pm 34.1 32.0 14.6 31 12.3 N 19 24 10 13 1011.3 1007.4 0.0
22/04:00pm 34.4 31.4 13.8 29 12.9 N 22 32 12 17 1011.8 1007.9 0.0
22/03:30pm 33.7 29.7 14.2 30 12.2 N 28 37 15 20 1011.7 1007.8 0.0
22/03:00pm 37.0 33.0 11.8 22 15.4 N 24 37 13 20 1011.8 1007.9 0.0
22/02:30pm 37.0 33.6 11.1 21 15.7 NNW 20 30 11 16 1012.1 1008.2 0.0
22/02:00pm 38.2 35.2 12.0 21 16.2 NNW 19 26 10 14 1012.4 1008.6 0.0
22/01:30pm 36.1 34.0 12.3 24 14.6 WNW 15 24 8 13 1013.1 1009.2 0.0
22/01:00pm 37.0 34.0 12.4 23 15.2 NW 20 28 11 15 1013.3 1009.4 0.0
22/12:30pm 36.7 33.0 11.5 22 15.3 NNW 22 33 12 18 1013.8 1009.9 0.0
22/12:00pm 36.3 33.9 12.5 24 14.7 NNW 17 30 9 16 1014.1 1010.3 0.0
22/11:51am 36.0 30.6 12.3 24 14.6 NNW 32 39 17 21 1014.2 1010.4 0.0
22/11:30am 34.9 33.2 12.5 25 13.7 NW 13 19 7 10 1014.4 1010.5 0.0
22/11:00am 34.6 31.5 12.3 26 13.6 NNW 20 30 11 16 1014.7 1010.8 0.0
22/10:30am 35.9 32.0 13.4 26 14.0 N 26 35 14 19 1014.9 1011.0 0.0
22/10:00am 34.8 31.9 13.0 26 13.5 NNW 20 32 11 17 1015.0 1011.1 0.0
22/09:30am 33.5 30.6 13.0 29 12.6 N 20 32 11 17 1014.8 1010.9 0.0
22/09:00am 32.3 29.4 13.0 31 11.8 N 20 30 11 16 1014.6 1010.7 0.0
22/08:30am 31.2 29.5 13.5 34 10.9 N 15 20 8 11 1014.6 1010.7 0.0
22/08:00am 30.0 27.9 13.7 37 10.0 N 17 24 9 13 1014.4 1010.5 0.0
22/07:30am 28.9 28.4 13.9 39 9.2 N 9 15 5 8 1013.9 1010.0 0.0
22/07:00am 27.9 27.8 13.8 42 8.6 NNW 7 9 4 5 1013.7 1009.8 0.0
22/06:30am 27.6 27.6 14.3 44 8.2 N 7 9 4 5 1013.1 1009.2 0.0
22/06:00am 26.9 27.2 15.0 48 7.4 N 7 11 4 6 1012.6 1008.7 0.0
22/05:30am 26.1 26.0 14.9 50 6.9 NNE 9 11 5 6 1011.7 1007.8 0.0
22/05:00am 25.6 25.8 14.1 49 7.0 NNE 6 11 3 6 1011.2 1007.3 0.0
22/04:30am 24.6 25.8 13.8 51 6.5 CALM 0 0 0 0 1010.9 1007.0 0.0
22/04:00am 24.4 25.5 13.6 51 6.5 CALM 0 0 0 0 1011.1 1007.2 0.0
22/03:30am 25.6 26.9 14.1 49 7.0 CALM 0 0 0 0 1011.2 1007.3 0.0
22/03:00am 26.3 26.7 13.8 46 7.6 NNW 4 6 2 3 1011.3 1007.4 0.0
22/02:30am 26.2 26.3 14.0 47 7.4 WNW 6 7 3 4 1011.5 1007.6 0.0
22/02:00am 26.7 28.1 14.5 47 7.5 CALM 0 0 0 0 1011.7 1007.8 0.0
22/01:30am 27.8 29.2 14.4 43 8.2 CALM 0 0 0 0 1012.4 1008.6 0.0
22/01:00am 28.1 28.9 14.7 44 8.3 S 4 6 2 3 1013.0 1009.1 0.0
22/12:30am 28.5 29.5 14.3 41 8.7 S 2 4 1 2 1013.6 1009.7 0.0
22/12:00am 28.4 28.3 13.9 41 8.9 ESE 7 9 4 5 1013.9 1010.0 0.0
 
Date/Time
CST
Temp
°C
App
Temp
°C
Dew
Point
Rel
Hum
%
Delta-T
°C
Wind Press
QNH
hPa
Press
MSL
hPa
Rain
since 9 am
mm
Dir
 
Spd
km/h
Gust
km/h
Spd
kts
Gust
kts
21/11:30pm 28.9 28.6 13.2 38 9.5 E 7 9 4 5 1014.2 1010.4 0.0
21/11:00pm 29.5 29.3 12.9 36 10.0 NNW 6 9 3 5 1014.5 1010.6 0.0
21/10:30pm 29.0 28.2 12.8 36 9.8 SSE 9 11 5 6 1014.1 1010.3 0.0
21/10:00pm 29.9 28.1 13.2 36 10.2 SE 15 26 8 14 1013.9 1010.0 0.0
21/09:30pm 31.6 28.8 11.4 29 12.0 S 17 24 9 13 1013.3 1009.4 0.0
21/09:00pm 31.6 28.4 11.9 30 11.8 SSW 20 30 11 16 1012.9 1009.0 0.0
21/08:30pm 30.2 27.8 12.6 34 10.6 S 17 24 9 13 1013.0 1009.1 0.0
21/08:00pm 31.6 28.6 12.4 31 11.6 SW 20 28 11 15 1012.6 1008.7 0.0
21/07:30pm 30.7 27.4 13.9 36 10.4 SW 24 33 13 18 1012.2 1008.3 0.0
21/07:00pm 31.7 28.6 13.5 33 11.2 SW 22 33 12 18 1012.2 1008.3 0.0
21/06:30pm 33.8 29.4 11.6 26 13.4 WSW 26 37 14 20 1011.6 1007.7 0.0
21/06:00pm 34.2 31.4 11.4 25 13.7 WNW 17 28 9 15 1011.0 1007.1 0.0
21/05:30pm 34.3 29.0 11.4 25 13.8 NW 30 46 16 25 1010.4 1006.5 0.0
21/05:00pm 34.1 28.0 11.9 26 13.5 NW 35 48 19 26 1010.4 1006.5 0.0
21/04:30pm 35.7 29.7 10.0 21 15.3 N 32 46 17 25 1009.7 1005.8 0.0
21/04:00pm 38.8 34.4 7.5 15 18.1 WNW 20 30 11 16 1009.4 1005.5 0.0
21/03:30pm 39.1 34.4 7.7 15 18.3 NW 22 35 12 19 1009.6 1005.7 0.0
21/03:00pm 39.8 35.8 8.3 15 18.6 N 19 28 10 15 1009.6 1005.7 0.0
21/02:30pm 40.0 36.3 9.4 16 18.3 W 19 22 10 12 1010.1 1006.2 0.0
21/02:00pm 38.6 36.0 9.2 17 17.4 NW 13 22 7 12 1010.5 1006.6 0.0
21/01:30pm 37.3 34.2 9.0 18 16.7 N 15 24 8 13 1011.1 1007.2 0.0
21/01:00pm 37.7 34.0 10.1 19 16.5 NNW 20 32 11 17 1011.4 1007.5 0.0
21/12:30pm 37.3 33.1 9.8 19 16.4 N 22 33 12 18 1011.8 1007.9 0.0
21/12:00pm 37.1 31.9 10.4 20 16.0 N 28 37 15 20 1012.1 1008.2 0.0
21/11:30am 37.5 32.2 10.0 19 16.4 N 28 37 15 20 1012.6 1008.7 0.0
21/11:00am 37.6 31.8 10.8 20 16.2 N 32 44 17 24 1012.8 1008.9 0.0
21/10:30am 36.4 30.1 9.8 20 15.8 N 33 46 18 25 1013.1 1009.2 0.0
21/10:20am 37.5 31.6 9.2 18 16.7 N 30 56 16 30 1013.1 1009.2 0.0
21/10:00am 37.3 32.0 9.8 19 16.4 N 28 41 15 22 1013.3 1009.4 0.0
21/09:30am 36.5 33.5 10.6 21 15.6 N 17 24 9 13 1013.4 1009.5 0.0
21/09:00am 35.4 32.5 11.1 23 14.6 NNE 17 26 9 14 1013.4 1009.5 0.0
21/08:30am 34.3 31.5 11.4 25 13.8 NE 17 22 9 12 1013.3 1009.4 0.0
21/08:00am 33.1 30.2 11.0 26 13.2 NNE 17 20 9 11 1013.0 1009.1 0.0
21/07:30am 31.1 29.2 10.4 28 12.1 NE 11 17 6 9 1012.7 1008.8 0.0
21/07:00am 29.3 28.1 10.4 31 11.0 NE 7 9 4 5 1012.4 1008.6 0.0
21/06:30am 27.1 25.9 9.5 33 10.0 NE 6 7 3 4 1012.2 1008.3 0.0
21/06:00am 26.2 25.3 9.1 34 9.6 NNE 4 6 2 3 1011.8 1007.9 0.0
21/05:30am 26.4 25.1 9.3 34 9.6 NE 6 7 3 4 1011.6 1007.7 0.0
21/05:00am 27.0 25.5 8.4 31 10.3 NE 6 7 3 4 1011.4 1007.5 0.0
21/04:30am 28.1 26.7 8.9 30 10.8 NE 6 7 3 4 1011.0 1007.1 0.0
21/04:00am 27.4 25.8 10.2 34 9.9 E 9 11 5 6 1010.9 1007.0 0.0
21/03:30am 27.7 26.2 9.0 31 10.6 NNE 7 9 4 5 1010.8 1006.8 0.0
21/03:00am 27.6 26.2 9.4 32 10.3 ENE 7 9 4 5 1010.5 1006.6 0.0
21/02:30am 27.3 26.4 10.5 35 9.7 E 6 9 3 5 1010.7 1006.7 0.0
21/02:00am 28.4 27.0 8.7 29 11.1 NNE 6 7 3 4 1011.1 1007.2 0.0
21/01:30am 29.0 28.7 8.7 28 11.5 CALM 0 6 0 3 1011.2 1007.3 0.0
21/01:00am 29.9 28.7 9.4 28 11.8 E 6 7 3 4 1011.6 1007.7 0.0
21/12:30am 30.4 30.1 8.7 26 12.3 CALM 0 2 0 1 1011.7 1007.8 0.0
21/12:00am 31.4 30.4 9.0 25 12.9 SSW 4 7 2 4 1011.7 1007.8 0.0
 
Date/Time
CST
Temp
°C
App
Temp
°C
Dew
Point
Rel
Hum
%
Delta-T
°C
Wind Press
QNH
hPa
Press
MSL
hPa
Rain
since 9 am
mm
Dir
 
Spd
km/h
Gust
km/h
Spd
kts
Gust
kts
20/11:30pm 31.5 30.6 9.1 25 12.9 SW 4 6 2 3 1011.8 1007.9 0.0
20/11:00pm 30.8 30.3 10.7 29 11.8 W 4 11 2 6 1011.9 1008.0 0.0
20/10:30pm 31.8 31.1 9.9 26 12.8 N 4 6 2 3 1011.8 1007.9 0.0
20/10:00pm 33.0 31.3 9.7 24 13.6 N 9 15 5 8 1011.6 1007.7 0.0
20/09:30pm 33.2 31.1 9.9 24 13.7 N 11 13 6 7 1011.3 1007.4 0.0
20/09:00pm 34.3 31.0 9.5 22 14.5 N 17 24 9 13 1011.3 1007.4 0.0
20/08:30pm 34.5 29.5 9.7 22 14.6 N 26 35 14 19 1011.1 1007.2 0.0
20/08:07pm 34.9 29.4 9.3 21 15.0 N 28 48 15 26 1010.8 1006.8 0.0
20/08:00pm 35.0 30.3 9.4 21 15.0 N 24 32 13 17 1010.7 1006.7 0.0
20/07:30pm 35.8 33.9 5.1 15 17.0 W 4 6 2 3 1010.0 1006.1 0.0
20/07:00pm 36.9 34.4 5.0 14 17.7 W 7 11 4 6 1009.6 1005.7 0.0
20/06:30pm 37.7 34.2 5.6 14 18.0 W 13 17 7 9 1009.2 1005.3 0.0
20/06:00pm 38.2 34.8 6.0 14 18.2 NW 13 20 7 11 1009.0 1005.0 0.0
20/05:30pm 38.7 35.8 6.4 14 18.4 NW 11 19 6 10 1008.9 1004.9 0.0
20/05:00pm 39.0 35.9 5.6 13 18.8 NNW 11 19 6 10 1008.9 1004.9 0.0
20/04:30pm 39.3 36.3 5.8 13 19.0 WNW 11 19 6 10 1009.0 1005.0 0.0
20/04:00pm 39.6 35.1 6.1 13 19.1 NNW 19 24 10 13 1009.2 1005.3 0.0
20/03:30pm 39.2 36.9 5.7 13 19.0 W 7 11 4 6 1009.4 1005.5 0.0
20/03:00pm 39.3 37.0 5.8 13 19.0 W 7 15 4 8 1009.6 1005.7 0.0
20/02:30pm 39.2 36.8 6.8 14 18.6 N 9 19 5 10 1009.9 1006.0 0.0

Other Formats:

Comma delimited format used in spreadsheet applications
http://www.bom.gov.au/fwo/IDD60801/IDD60801.94328.axf

JavaScript Object Notation format (JSON) in row-major order
http://www.bom.gov.au/fwo/IDD60801/IDD60801.94328.json